createdAt,value
2018-07-03T00:01:16.826Z,100981.40
2018-07-03T00:03:21.929Z,100981.75
2018-07-03T00:05:27.155Z,100981.66
2018-07-03T00:07:32.178Z,100980.28
2018-07-03T00:09:37.180Z,100981.53
2018-07-03T00:11:42.443Z,100981.50
2018-07-03T00:13:49.657Z,100927.63
2018-07-03T00:15:54.534Z,100977.83
2018-07-03T00:17:59.924Z,100976.88
2018-07-03T00:20:05.382Z,100982.07
2018-07-03T00:22:10.207Z,100981.39
2018-07-03T00:24:15.062Z,100974.73
2018-07-03T00:26:19.897Z,100972.38
2018-07-03T00:28:24.818Z,100976.25
2018-07-03T00:30:29.747Z,100972.33
2018-07-03T00:32:34.585Z,100978.31
2018-07-03T00:34:39.444Z,100973.97
2018-07-03T00:36:44.314Z,100977.91
2018-07-03T00:38:49.147Z,100971.37
2018-07-03T00:40:53.981Z,100973.00
2018-07-03T00:42:58.812Z,100974.30
2018-07-03T00:45:03.785Z,100915.67
2018-07-03T00:47:08.671Z,100972.88
2018-07-03T00:49:13.467Z,100972.44
2018-07-03T00:51:18.202Z,100980.91
2018-07-03T00:53:23.061Z,100982.58
2018-07-03T00:55:28.073Z,100986.17
2018-07-03T00:57:32.816Z,100983.94
2018-07-03T00:59:48.602Z,100973.27
2018-07-03T01:01:53.394Z,100997.69
2018-07-03T01:03:58.283Z,100975.23
2018-07-03T01:06:04.225Z,100991.73
2018-07-03T01:08:09.062Z,100987.69
2018-07-03T01:10:13.842Z,100992.19
2018-07-03T01:12:18.815Z,100993.88
2018-07-03T01:14:23.828Z,100965.31
2018-07-03T01:16:28.720Z,100990.12
2018-07-03T01:18:33.869Z,100981.45
2018-07-03T01:20:38.796Z,100984.99
2018-07-03T01:22:44.009Z,100981.39
2018-07-03T01:24:48.777Z,100947.32
2018-07-03T01:26:53.512Z,100980.62
2018-07-03T01:28:58.243Z,100981.01
2018-07-03T01:31:03.010Z,100985.28
2018-07-03T01:33:07.805Z,100986.84
2018-07-03T01:35:13.015Z,100988.95
2018-07-03T01:37:17.886Z,100957.25
2018-07-03T01:39:22.742Z,100975.25
2018-07-03T01:41:27.786Z,100984.05
2018-07-03T01:43:32.739Z,100985.66
2018-07-03T01:45:37.478Z,100996.38
2018-07-03T01:47:42.420Z,100989.41
2018-07-03T01:49:47.370Z,100989.97
2018-07-03T01:51:52.197Z,100990.25
2018-07-03T01:53:57.091Z,100988.30
2018-07-03T01:56:02.042Z,100991.94
2018-07-03T01:58:07.476Z,100993.05
2018-07-03T02:00:12.579Z,100988.52
2018-07-03T02:02:17.342Z,100988.45
2018-07-03T02:04:22.202Z,100982.55
2018-07-03T02:06:27.100Z,100983.97
2018-07-03T02:08:31.847Z,100980.95
2018-07-03T02:10:36.907Z,100976.38
2018-07-03T02:12:41.851Z,100979.20
2018-07-03T02:14:46.732Z,100977.17
2018-07-03T02:16:51.901Z,100980.64
2018-07-03T02:18:56.632Z,100975.18
2018-07-03T02:21:01.500Z,100961.66
2018-07-03T02:23:06.348Z,100972.89
2018-07-03T02:25:11.162Z,100972.47
2018-07-03T02:27:18.875Z,100969.26
2018-07-03T02:29:24.160Z,100974.89
2018-07-03T02:31:29.594Z,100968.98
2018-07-03T02:33:34.329Z,100977.02
2018-07-03T02:35:39.200Z,100967.88
2018-07-03T02:37:44.155Z,100970.47
2018-07-03T02:39:49.041Z,100969.60
2018-07-03T02:41:54.095Z,100963.76
2018-07-03T02:43:58.933Z,100955.53
2018-07-03T02:46:03.813Z,100964.38
2018-07-03T02:48:08.875Z,100963.79
2018-07-03T02:50:13.756Z,100955.94
2018-07-03T02:52:18.521Z,100911.58
2018-07-03T02:54:23.736Z,100960.61
2018-07-03T02:56:28.764Z,100961.03
2018-07-03T02:58:33.826Z,100957.70
2018-07-03T03:00:38.849Z,100962.36
2018-07-03T03:02:43.716Z,100967.36
2018-07-03T03:04:48.691Z,100966.53
2018-07-03T03:06:53.592Z,100964.27
2018-07-03T03:08:58.682Z,100967.64
2018-07-03T03:11:03.546Z,100958.41
2018-07-03T03:13:08.679Z,100938.09
2018-07-03T03:15:13.773Z,100926.74
2018-07-03T03:17:18.564Z,100949.98
2018-07-03T03:19:23.486Z,100937.63
2018-07-03T03:21:28.870Z,100950.45
2018-07-03T03:23:33.705Z,100943.48
2018-07-03T03:25:38.594Z,100947.77
2018-07-03T03:27:43.502Z,100945.23
2018-07-03T03:29:48.363Z,100940.31
2018-07-03T03:31:53.211Z,100942.48
2018-07-03T03:33:58.018Z,100939.69
2018-07-03T03:36:02.851Z,100917.28
2018-07-03T03:38:07.611Z,100943.56
2018-07-03T03:40:12.527Z,100936.09
2018-07-03T03:42:17.276Z,100942.14
2018-07-03T03:44:22.078Z,100933.09
2018-07-03T03:46:27.032Z,100941.22
2018-07-03T03:48:31.839Z,100937.27
2018-07-03T03:50:36.800Z,100943.89
2018-07-03T03:52:41.601Z,100945.56
2018-07-03T03:54:46.508Z,100941.27
2018-07-03T03:56:51.578Z,100947.48
2018-07-03T03:58:56.447Z,100926.88
2018-07-03T04:01:01.227Z,100952.16
2018-07-03T04:03:05.980Z,100957.83
2018-07-03T04:05:10.877Z,100958.41
2018-07-03T04:07:15.689Z,100956.45
2018-07-03T04:09:20.519Z,100963.51
2018-07-03T04:11:26.002Z,100964.92
2018-07-03T04:13:30.872Z,100973.97
2018-07-03T04:15:35.615Z,100971.80
2018-07-03T04:17:40.476Z,100974.48
2018-07-03T04:19:45.275Z,100971.48
2018-07-03T04:21:50.021Z,100980.16
2018-07-03T04:23:55.014Z,100976.78
2018-07-03T04:26:01.171Z,100979.55
2018-07-03T04:28:06.013Z,100983.09
2018-07-03T04:30:10.864Z,100984.39
2018-07-03T04:32:15.679Z,100989.56
2018-07-03T04:34:21.423Z,100995.20
2018-07-03T04:36:27.911Z,100991.45
2018-07-03T04:38:32.836Z,100992.13
2018-07-03T04:40:38.081Z,100988.84
2018-07-03T04:42:43.108Z,100991.53
2018-07-03T04:44:48.262Z,100990.84
2018-07-03T04:46:53.426Z,100991.84
2018-07-03T04:48:58.516Z,100999.60
2018-07-03T04:51:03.426Z,101004.45
2018-07-03T04:53:08.997Z,101007.12
2018-07-03T04:55:13.904Z,101001.11
2018-07-03T04:57:18.723Z,101003.78
2018-07-03T04:59:23.608Z,100998.23
2018-07-03T05:01:28.775Z,100996.61
2018-07-03T05:03:33.528Z,101001.19
2018-07-03T05:05:38.614Z,101002.61
2018-07-03T05:07:43.473Z,101004.33
2018-07-03T05:09:48.541Z,101004.83
2018-07-03T05:11:53.361Z,101002.20
2018-07-03T05:13:58.492Z,101000.48
2018-07-03T05:16:03.757Z,101008.41
2018-07-03T05:18:08.517Z,100972.64
2018-07-03T05:20:13.274Z,101016.91
2018-07-03T05:22:18.696Z,101017.64
2018-07-03T05:24:24.517Z,101020.45
2018-07-03T05:26:29.395Z,101019.57
2018-07-03T05:28:38.218Z,101014.85
2018-07-03T05:30:43.035Z,101024.03
2018-07-03T05:32:47.970Z,101008.84
2018-07-03T05:34:53.122Z,101023.39
2018-07-03T05:36:58.431Z,101013.14
2018-07-03T05:39:15.959Z,101013.34
2018-07-03T05:41:22.701Z,101015.62
2018-07-03T05:43:27.945Z,101023.92
2018-07-03T05:45:33.369Z,101021.45
2018-07-03T05:47:38.758Z,101021.59
2018-07-03T05:49:44.204Z,101025.48
2018-07-03T05:51:49.119Z,101029.52
2018-07-03T05:53:54.219Z,101030.47
2018-07-03T05:55:59.522Z,101032.25
2018-07-03T05:58:04.717Z,101033.20
2018-07-03T06:00:09.708Z,101035.94
2018-07-03T06:02:14.671Z,101030.48
2018-07-03T06:04:19.807Z,101037.20
2018-07-03T06:06:24.712Z,101039.09
2018-07-03T06:08:29.590Z,101036.42
2018-07-03T06:10:34.475Z,101034.55
2018-07-03T06:12:39.295Z,100987.36
2018-07-03T06:14:44.570Z,101034.61
2018-07-03T06:16:54.476Z,101037.33
2018-07-03T06:18:59.566Z,101037.81
2018-07-03T06:21:04.770Z,101040.11
2018-07-03T06:23:10.196Z,101037.15
2018-07-03T06:25:17.353Z,101035.91
2018-07-03T06:27:22.131Z,101015.05
2018-07-03T06:29:27.003Z,101034.97
2018-07-03T06:31:34.892Z,100990.63
2018-07-03T06:33:39.665Z,101026.70
2018-07-03T06:35:44.595Z,101028.94
2018-07-03T06:37:49.444Z,101036.06
2018-07-03T06:39:54.626Z,101043.02
2018-07-03T06:41:59.444Z,101041.74
2018-07-03T06:44:04.378Z,101026.02
2018-07-03T06:46:09.322Z,101043.58
2018-07-03T06:48:14.176Z,101048.19
2018-07-03T06:50:19.174Z,101044.69
2018-07-03T06:52:24.041Z,101043.73
2018-07-03T06:54:29.150Z,101044.99
2018-07-03T06:56:34.479Z,101047.16
2018-07-03T06:58:39.290Z,101028.56
2018-07-03T07:00:44.289Z,101051.37
2018-07-03T07:02:50.347Z,101053.32
2018-07-03T07:04:55.522Z,101041.02
2018-07-03T07:07:01.438Z,101032.80
2018-07-03T07:09:10.363Z,101046.44
2018-07-03T07:11:15.376Z,101041.10
2018-07-03T07:13:20.364Z,101042.27
2018-07-03T07:15:25.290Z,101043.22
2018-07-03T07:17:30.195Z,101045.05
2018-07-03T07:19:35.102Z,101005.26
2018-07-03T07:21:39.998Z,101035.59
2018-07-03T07:23:44.862Z,101036.59
2018-07-03T07:25:50.126Z,101037.58
2018-07-03T07:27:55.015Z,101038.06
2018-07-03T07:29:59.917Z,101037.22
2018-07-03T07:32:06.732Z,100999.64
2018-07-03T07:36:17.047Z,101045.80
2018-07-03T07:38:22.301Z,101033.66
2018-07-03T07:40:27.981Z,101037.71
2018-07-03T07:42:33.140Z,101034.34
2018-07-03T07:44:38.225Z,101035.66
2018-07-03T07:46:43.048Z,101026.58
2018-07-03T07:48:47.920Z,101027.63
2018-07-03T07:50:52.759Z,101027.36
2018-07-03T07:52:57.627Z,101023.94
2018-07-03T07:55:02.659Z,101023.91
2018-07-03T07:57:07.726Z,101023.95
2018-07-03T07:59:12.648Z,100967.97
2018-07-03T08:01:17.491Z,101006.37
2018-07-03T08:03:22.373Z,101015.17
2018-07-03T08:05:27.474Z,101024.41
2018-07-03T08:07:32.250Z,100999.12
2018-07-03T08:09:37.177Z,101011.78
2018-07-03T08:11:42.092Z,101022.78
2018-07-03T08:13:47.071Z,101024.16
2018-07-03T08:15:52.017Z,101033.32
2018-07-03T08:17:56.819Z,101023.77
2018-07-03T08:20:04.107Z,101016.85
2018-07-03T08:22:11.284Z,101017.50
2018-07-03T08:24:18.497Z,100997.34
2018-07-03T08:26:24.622Z,101034.51
2018-07-03T08:28:29.541Z,101021.45
2018-07-03T08:30:34.887Z,101031.47
2018-07-03T08:32:40.037Z,101023.63
2018-07-03T08:34:45.046Z,101006.18
2018-07-03T08:36:50.092Z,101022.33
2018-07-03T08:38:55.027Z,101018.39
2018-07-03T08:40:59.853Z,101020.14
2018-07-03T08:43:04.868Z,101023.66
2018-07-03T08:45:10.120Z,101022.33
2018-07-03T08:47:15.954Z,100954.33
2018-07-03T08:49:22.504Z,101019.31
2018-07-03T08:51:27.819Z,101024.13
2018-07-03T08:53:32.986Z,101028.03
2018-07-03T08:55:37.948Z,101025.84
2018-07-03T08:57:43.034Z,100987.92
2018-07-03T08:59:48.026Z,101024.95
2018-07-03T09:01:53.192Z,101024.47
2018-07-03T09:03:58.257Z,101024.89
2018-07-03T09:06:03.293Z,101023.58
2018-07-03T09:08:08.110Z,101024.91
2018-07-03T09:10:15.286Z,101027.95
2018-07-03T09:12:20.311Z,101027.05
2018-07-03T09:14:36.806Z,101034.94
2018-07-03T09:16:41.730Z,101030.14
2018-07-03T09:18:46.794Z,100982.99
2018-07-03T09:20:52.313Z,101027.07
2018-07-03T09:22:58.468Z,101028.23
2018-07-03T09:25:03.576Z,101025.69
2018-07-03T09:27:08.776Z,101024.86
2018-07-03T09:29:13.717Z,101020.45
2018-07-03T09:31:18.795Z,101024.43
2018-07-03T09:33:30.101Z,101018.70
2018-07-03T09:35:35.044Z,101022.63
2018-07-03T09:37:40.176Z,101024.75
2018-07-03T09:39:45.175Z,101002.02
2018-07-03T09:41:50.409Z,101022.11
2018-07-03T09:43:55.328Z,100978.51
2018-07-03T09:46:00.374Z,100998.11
2018-07-03T09:48:05.811Z,101017.63
2018-07-03T09:50:11.387Z,101022.40
2018-07-03T09:52:16.489Z,101022.67
2018-07-03T09:54:22.379Z,101014.43
2018-07-03T09:56:28.242Z,100952.23
2018-07-03T09:58:33.626Z,100835.06
2018-07-03T10:00:43.815Z,101019.34
2018-07-03T10:02:49.042Z,101020.22
2018-07-03T10:04:54.546Z,100763.19
2018-07-03T10:07:00.213Z,100996.42
2018-07-03T10:09:08.838Z,101021.28
2018-07-03T10:11:14.453Z,101011.13
2018-07-03T10:13:20.440Z,101008.48
2018-07-03T10:15:27.223Z,101033.36
2018-07-03T10:17:32.864Z,101019.31
2018-07-03T10:19:41.884Z,101008.48
2018-07-03T10:21:48.412Z,101017.17
2018-07-03T10:23:54.098Z,100899.20
2018-07-03T10:25:59.659Z,101010.06
2018-07-03T10:28:05.117Z,101003.47
2018-07-03T10:30:14.528Z,101019.93
2018-07-03T10:32:21.583Z,101015.75
2018-07-03T10:34:27.658Z,101017.73
2018-07-03T10:36:33.939Z,101011.90
2018-07-03T10:38:40.209Z,101011.49
2018-07-03T10:40:46.188Z,100829.11
2018-07-03T10:42:52.166Z,101011.33
2018-07-03T10:45:03.107Z,100999.30
2018-07-03T10:47:11.455Z,101004.08
2018-07-03T10:49:20.741Z,100991.41
2018-07-03T10:51:26.459Z,100999.06
2018-07-03T10:53:31.929Z,100947.09
2018-07-03T10:55:39.749Z,100932.91
2018-07-03T10:57:45.691Z,100933.48
2018-07-03T10:59:51.543Z,100993.57
2018-07-03T11:01:56.504Z,100988.72
2018-07-03T11:06:16.841Z,100992.02
2018-07-03T11:08:22.355Z,100994.62
2018-07-03T11:10:28.089Z,100988.59
2018-07-03T11:12:33.777Z,100898.23
2018-07-03T11:14:38.883Z,100984.46
2018-07-03T11:16:46.929Z,100982.77
2018-07-03T11:18:52.092Z,100986.07
2018-07-03T11:20:57.589Z,100989.30
2018-07-03T11:23:02.716Z,100962.69
2018-07-03T11:25:10.143Z,100956.79
2018-07-03T11:27:15.031Z,100985.27
2018-07-03T11:29:21.174Z,100980.52
2018-07-03T11:31:26.646Z,100979.80
2018-07-03T11:33:32.036Z,100982.30
2018-07-03T11:35:37.226Z,100971.11
2018-07-03T11:37:42.479Z,100972.05
2018-07-03T11:39:48.245Z,100969.78
2018-07-03T11:41:56.141Z,100970.36
2018-07-03T11:44:03.626Z,100937.81
2018-07-03T11:46:08.990Z,100966.77
2018-07-03T11:48:17.459Z,100967.95
2018-07-03T11:50:23.136Z,100948.61
2018-07-03T11:52:31.654Z,100959.87
2018-07-03T11:54:38.796Z,100965.34
2018-07-03T11:56:45.654Z,100962.73
2018-07-03T11:58:50.717Z,100958.41
2018-07-03T12:00:55.725Z,100955.20
2018-07-03T12:03:03.363Z,100930.21
2018-07-03T12:05:11.593Z,100956.88
2018-07-03T12:07:19.026Z,100958.94
2018-07-03T12:09:26.314Z,100944.44
2018-07-03T12:11:34.031Z,100954.24
2018-07-03T12:13:44.121Z,100936.00
2018-07-03T12:15:51.367Z,100916.14
2018-07-03T12:17:59.721Z,100945.44
2018-07-03T12:20:08.310Z,100941.04
2018-07-03T12:22:15.903Z,100937.96
2018-07-03T12:24:26.102Z,100931.16
2018-07-03T12:26:34.169Z,100950.20
2018-07-03T12:28:42.192Z,100915.75
2018-07-03T12:30:50.650Z,100946.63
2018-07-03T12:32:58.807Z,100955.78
2018-07-03T12:35:06.845Z,100942.16
2018-07-03T12:37:14.489Z,100905.91
2018-07-03T12:39:21.828Z,100935.11
2018-07-03T12:41:30.875Z,100950.77
2018-07-03T12:43:39.238Z,100846.47
2018-07-03T12:45:48.991Z,100940.38
2018-07-03T12:48:05.530Z,100935.36
2018-07-03T12:50:13.600Z,100851.88
2018-07-03T12:52:22.727Z,100951.12
2018-07-03T12:54:33.896Z,100932.81
2018-07-03T12:56:42.125Z,100919.77
2018-07-03T12:58:51.494Z,100929.17
2018-07-03T13:01:00.832Z,100871.41
2018-07-03T13:03:09.671Z,100666.20
2018-07-03T13:05:17.452Z,100898.67
2018-07-03T13:07:26.533Z,100916.64
2018-07-03T13:09:35.372Z,100921.66
2018-07-03T13:11:43.677Z,100923.42
2018-07-03T13:13:52.530Z,100864.66
2018-07-03T13:15:59.612Z,100918.44
2018-07-03T13:18:30.645Z,100919.13
2018-07-03T13:20:37.898Z,100919.58
2018-07-03T13:22:45.301Z,100908.88
2018-07-03T13:24:53.156Z,100866.92
2018-07-03T13:27:00.651Z,100908.43
2018-07-03T13:29:08.110Z,100911.42
2018-07-03T13:31:17.648Z,100911.89
2018-07-03T13:33:25.448Z,100900.07
2018-07-03T13:35:34.168Z,100900.36
2018-07-03T13:37:42.017Z,100902.86
2018-07-03T13:39:49.963Z,100890.38
2018-07-03T13:41:57.914Z,100869.80
2018-07-03T13:44:05.656Z,100904.03
2018-07-03T13:46:13.562Z,100895.09
2018-07-03T13:48:21.114Z,100900.61
2018-07-03T13:50:28.647Z,100905.37
2018-07-03T13:52:36.502Z,100903.70
2018-07-03T13:54:43.541Z,100896.43
2018-07-03T13:56:54.510Z,100898.92
2018-07-03T13:59:04.884Z,100902.23
2018-07-03T14:01:09.771Z,100897.59
2018-07-03T14:03:14.659Z,100902.38
2018-07-03T14:05:19.632Z,100896.17
2018-07-03T14:07:24.668Z,100891.58
2018-07-03T14:09:29.498Z,100892.85
2018-07-03T14:11:34.355Z,100904.16
2018-07-03T14:13:39.352Z,100896.62
2018-07-03T14:15:44.274Z,100889.91
2018-07-03T14:17:49.341Z,100884.81
2018-07-03T14:20:01.087Z,100879.38
2018-07-03T14:22:06.313Z,100875.42
2018-07-03T14:24:11.150Z,100874.72
2018-07-03T14:26:16.706Z,100882.38
2018-07-03T14:28:21.721Z,100876.66
2018-07-03T14:30:26.971Z,100869.91
2018-07-03T14:32:31.861Z,100870.95
2018-07-03T14:34:36.838Z,100867.03
2018-07-03T14:36:42.159Z,100872.99
2018-07-03T14:38:47.233Z,100871.80
2018-07-03T14:40:52.165Z,100853.83
2018-07-03T14:42:57.007Z,100875.70
2018-07-03T14:45:02.108Z,100872.86
2018-07-03T14:47:06.934Z,100868.34
2018-07-03T14:49:11.887Z,100870.06
2018-07-03T14:51:16.763Z,100874.91
2018-07-03T14:53:21.669Z,100870.39
2018-07-03T14:55:26.535Z,100866.33
2018-07-03T14:57:32.062Z,100835.20
2018-07-03T14:59:37.094Z,100865.47
2018-07-03T15:01:42.166Z,100857.50
2018-07-03T15:03:46.997Z,100841.23
2018-07-03T15:05:51.926Z,100860.33
2018-07-03T15:07:57.341Z,100858.97
2018-07-03T15:10:02.360Z,100854.95
2018-07-03T15:12:07.385Z,100843.66
2018-07-03T15:14:12.282Z,100853.06
2018-07-03T15:16:17.463Z,100854.34
2018-07-03T15:18:22.423Z,100857.89
2018-07-03T15:20:27.428Z,100849.30
2018-07-03T15:22:32.265Z,100846.87
2018-07-03T15:24:37.210Z,100844.61
2018-07-03T15:26:42.757Z,100845.15
2018-07-03T15:28:48.492Z,100813.55
2018-07-03T15:30:53.913Z,100844.63
2018-07-03T15:33:00.152Z,100841.22
2018-07-03T15:35:06.079Z,100855.02
2018-07-03T15:37:16.178Z,100842.39
2018-07-03T15:39:21.711Z,100838.53
2018-07-03T15:41:26.938Z,100839.64
2018-07-03T15:43:31.971Z,100832.99
2018-07-03T15:45:37.512Z,100825.06
2018-07-03T15:47:42.777Z,100822.52
2018-07-03T15:49:48.241Z,100833.15
2018-07-03T15:51:55.256Z,100837.18
2018-07-03T15:54:02.599Z,100833.63
2018-07-03T15:56:07.833Z,100831.79
2018-07-03T15:58:13.220Z,100805.83
2018-07-03T16:00:18.731Z,100662.84
2018-07-03T16:02:24.397Z,100820.36
2018-07-03T16:05:15.213Z,100821.72
2018-07-03T16:07:37.191Z,100815.53
2018-07-03T16:09:43.594Z,100795.13
2018-07-03T16:11:48.785Z,100814.40
2018-07-03T16:13:54.714Z,100651.20
2018-07-03T16:16:02.114Z,100775.28
2018-07-03T16:18:09.192Z,100819.67
2018-07-03T16:20:19.422Z,100812.08
2018-07-03T16:22:24.559Z,100811.72
2018-07-03T16:24:29.725Z,100804.11
2018-07-03T16:26:36.679Z,100779.91
2018-07-03T16:28:41.961Z,100812.01
2018-07-03T16:30:47.132Z,100807.45
2018-07-03T16:32:54.095Z,100807.45
2018-07-03T16:34:59.757Z,100808.53
2018-07-03T16:37:05.757Z,100812.24
2018-07-03T16:39:16.946Z,100812.81
2018-07-03T16:41:26.590Z,100817.47
2018-07-03T16:43:32.648Z,100818.02
2018-07-03T16:45:37.894Z,100816.45
2018-07-03T16:47:43.174Z,100814.31
2018-07-03T16:49:50.437Z,100815.13
2018-07-03T16:51:55.503Z,100817.80
2018-07-03T16:54:00.430Z,100803.13
2018-07-03T16:56:05.725Z,100820.61
2018-07-03T16:58:10.594Z,100826.09
2018-07-03T17:00:30.077Z,100814.45
2018-07-03T17:02:36.976Z,100818.95
2018-07-03T17:04:41.656Z,100813.34
2018-07-03T17:06:46.973Z,100665.09
2018-07-03T17:08:52.985Z,100802.36
2018-07-03T17:10:58.951Z,100810.84
2018-07-03T17:13:03.791Z,100808.62
2018-07-03T17:15:08.731Z,100808.31
2018-07-03T17:17:13.584Z,100811.09
2018-07-03T17:19:24.141Z,100802.63
2018-07-03T17:21:29.946Z,100798.17
2018-07-03T17:23:36.144Z,100794.48
2018-07-03T17:25:44.344Z,100796.98
2018-07-03T17:27:52.294Z,100799.98
2018-07-03T17:29:59.015Z,100794.45
2018-07-03T17:32:05.086Z,100788.79
2018-07-03T17:34:10.147Z,100794.59
2018-07-03T17:36:17.108Z,100668.20
2018-07-03T17:38:23.212Z,100785.94
2018-07-03T17:40:46.645Z,100778.38
2018-07-03T17:44:00.560Z,100791.22
2018-07-03T17:46:09.968Z,100793.52
2018-07-03T17:48:15.719Z,100784.27
2018-07-03T17:50:20.571Z,100781.12
2018-07-03T17:52:25.616Z,100784.80
2018-07-03T17:54:30.558Z,100725.49
2018-07-03T17:56:36.204Z,100765.82
2018-07-03T17:58:41.147Z,100779.23
2018-07-03T18:01:16.904Z,100778.23
2018-07-03T18:03:22.519Z,100783.83
2018-07-03T18:05:28.506Z,100761.50
2018-07-03T18:07:44.956Z,100777.27
2018-07-03T18:09:51.820Z,100780.39
2018-07-03T18:11:58.635Z,100779.96
2018-07-03T18:14:04.456Z,100779.75
2018-07-03T18:16:17.256Z,100773.80
2018-07-03T18:18:23.199Z,100774.75
2018-07-03T18:20:53.760Z,100771.12
2018-07-03T18:22:58.837Z,100771.23
2018-07-03T18:25:14.128Z,100772.81
2018-07-03T18:27:25.598Z,100776.07
2018-07-03T18:29:56.664Z,100731.97
2018-07-03T18:32:11.667Z,100771.08
2018-07-03T18:34:16.916Z,100770.62
2018-07-03T18:36:21.549Z,100773.19
2018-07-03T18:38:27.337Z,100781.47
2018-07-03T18:40:35.848Z,100787.62
2018-07-03T18:42:40.934Z,100780.41
2018-07-03T18:44:46.089Z,100634.63
2018-07-03T18:46:50.873Z,100780.41
2018-07-03T18:48:56.380Z,100779.22
2018-07-03T18:51:03.627Z,100783.78
2018-07-03T18:53:09.878Z,100760.45
2018-07-03T18:55:15.269Z,100782.59
2018-07-03T18:57:21.064Z,100784.02
2018-07-03T18:59:26.079Z,100782.70
2018-07-03T19:01:31.044Z,100764.41
2018-07-03T19:03:36.009Z,100790.20
2018-07-03T19:05:40.835Z,100713.12
2018-07-03T19:07:46.800Z,100788.91
2018-07-03T19:09:52.082Z,100779.17
2018-07-03T19:11:57.336Z,100563.09
2018-07-03T19:14:02.580Z,100777.36
2018-07-03T19:16:08.363Z,100698.27
2018-07-03T19:18:13.714Z,100781.02
2018-07-03T19:20:20.124Z,100690.45
2018-07-03T19:22:26.534Z,100667.19
2018-07-03T19:24:31.708Z,100789.48
2018-07-03T19:26:37.905Z,100787.97
2018-07-03T19:28:44.966Z,100780.35
2018-07-03T19:30:50.576Z,100764.23
2018-07-03T19:32:55.826Z,100777.39
2018-07-03T19:35:01.467Z,100605.88
2018-07-03T19:37:08.345Z,100784.81
2018-07-03T19:39:15.123Z,100751.98
2018-07-03T19:41:22.540Z,100768.18
2018-07-03T19:43:30.085Z,100783.58
2018-07-03T19:45:39.236Z,100762.93
2018-07-03T19:47:46.128Z,100783.86
2018-07-03T19:49:55.843Z,100780.13
2018-07-03T19:52:03.591Z,100784.55
2018-07-03T19:54:09.379Z,100621.84
2018-07-03T19:56:19.790Z,100790.86
2018-07-03T19:58:25.459Z,100786.66
2018-07-03T20:00:30.555Z,100809.41
2018-07-03T20:02:35.642Z,100791.62
2018-07-03T20:04:40.929Z,100638.46
2018-07-03T20:06:47.094Z,100797.89
2018-07-03T20:08:52.448Z,100781.88
2018-07-03T20:10:58.220Z,100798.53
2018-07-03T20:13:03.557Z,100802.55
2018-07-03T20:15:10.314Z,100786.06
2018-07-03T20:17:19.827Z,100800.02
2018-07-03T20:19:28.228Z,100801.82
2018-07-03T20:21:33.716Z,100802.34
2018-07-03T20:23:40.884Z,100796.30
2018-07-03T20:25:46.300Z,100802.94
2018-07-03T20:27:51.670Z,100801.27
2018-07-03T20:29:59.443Z,100733.08
2018-07-03T20:32:06.311Z,100745.36
2018-07-03T20:34:12.205Z,100800.55
2018-07-03T20:36:18.816Z,100799.30
2018-07-03T20:38:24.292Z,100799.73
2018-07-03T20:40:44.117Z,100794.08
2018-07-03T20:42:48.936Z,100797.62
2018-07-03T20:44:55.461Z,100723.33
2018-07-03T20:47:02.994Z,100597.39
2018-07-03T20:49:08.294Z,100816.09
2018-07-03T20:51:13.521Z,100799.12
2018-07-03T20:53:18.623Z,100817.97
2018-07-03T20:55:24.365Z,100811.44
2018-07-03T20:57:29.933Z,100806.69
2018-07-03T20:59:34.913Z,100805.80
2018-07-03T21:01:40.199Z,100805.41
2018-07-03T21:03:46.085Z,100749.80
2018-07-03T21:05:52.281Z,100684.98
2018-07-03T21:08:01.610Z,100755.47
2018-07-03T21:10:07.386Z,100806.40
2018-07-03T21:12:12.539Z,100805.99
2018-07-03T21:14:17.526Z,100812.98
2018-07-03T21:16:22.570Z,100725.91
2018-07-03T21:18:27.775Z,100806.91
2018-07-03T21:20:32.956Z,100803.43
2018-07-03T21:22:38.021Z,100765.55
2018-07-03T21:24:42.913Z,100801.30
2018-07-03T21:26:47.598Z,100797.75
2018-07-03T21:28:53.045Z,100705.99
2018-07-03T21:30:58.695Z,100707.72
2018-07-03T21:33:03.598Z,100794.29
2018-07-03T21:35:09.937Z,100769.52
2018-07-03T21:37:14.873Z,100766.91
2018-07-03T21:39:20.066Z,100799.54
2018-07-03T21:41:40.149Z,100802.60
2018-07-03T21:43:47.298Z,100784.33
2018-07-03T21:45:53.529Z,100804.79
2018-07-03T21:48:00.521Z,100763.04
2018-07-03T21:50:05.961Z,100691.66
2018-07-03T21:52:11.353Z,100683.38
2018-07-03T21:54:16.825Z,100803.08
2018-07-03T21:56:21.630Z,100804.40
2018-07-03T21:58:27.024Z,100712.97
2018-07-03T22:00:37.921Z,100651.63
2018-07-03T22:02:42.829Z,100811.36
2018-07-03T22:04:47.604Z,100803.10
2018-07-03T22:06:52.534Z,100803.98
2018-07-03T22:08:57.662Z,100805.70
2018-07-03T22:11:02.562Z,100806.13
2018-07-03T22:13:07.758Z,100813.97
2018-07-03T22:15:12.585Z,100784.82
2018-07-03T22:17:17.652Z,100813.10
2018-07-03T22:19:22.494Z,100814.41
2018-07-03T22:21:27.252Z,100816.62
2018-07-03T22:23:32.145Z,100806.18
2018-07-03T22:25:36.938Z,100805.76
2018-07-03T22:27:46.602Z,100787.88
2018-07-03T22:29:53.242Z,100805.73
2018-07-03T22:31:59.744Z,100674.70
2018-07-03T22:34:06.491Z,100807.92
2018-07-03T22:36:23.299Z,100813.58
2018-07-03T22:38:30.566Z,100729.12
2018-07-03T22:40:45.544Z,100807.90
2018-07-03T22:42:50.547Z,100808.77
2018-07-03T22:44:55.411Z,100810.08
2018-07-03T22:47:00.115Z,100817.51
2018-07-03T22:49:05.136Z,100810.95
2018-07-03T22:51:10.097Z,100777.44
2018-07-03T22:53:14.881Z,100810.52
2018-07-03T22:55:19.636Z,100810.52
2018-07-03T22:57:24.427Z,100814.44
2018-07-03T22:59:29.288Z,100811.83
2018-07-03T23:01:34.105Z,100809.21
2018-07-03T23:03:39.048Z,100807.47
2018-07-03T23:05:43.900Z,100812.70
2018-07-03T23:07:48.791Z,100804.86
2018-07-03T23:09:53.568Z,100812.27
2018-07-03T23:11:58.392Z,100809.21
2018-07-03T23:14:03.310Z,100796.12
2018-07-03T23:16:08.147Z,100800.94
2018-07-03T23:18:12.914Z,100799.16
2018-07-03T23:20:17.654Z,100789.16
2018-07-03T23:22:22.503Z,100787.41
2018-07-03T23:24:27.505Z,100790.93
2018-07-03T23:26:32.352Z,100805.73
2018-07-03T23:28:37.086Z,100802.68
2018-07-03T23:30:41.903Z,100807.47
2018-07-03T23:32:46.782Z,100803.55
2018-07-03T23:34:51.494Z,100803.55
2018-07-03T23:36:56.713Z,100798.77
2018-07-03T23:39:01.437Z,100803.08
2018-07-03T23:41:06.180Z,100802.21
2018-07-03T23:43:10.882Z,100807.87
2018-07-03T23:45:15.585Z,100810.91
2018-07-03T23:47:36.833Z,100805.73
2018-07-03T23:49:58.223Z,100803.08
2018-07-03T23:52:19.495Z,100805.25
2018-07-03T23:54:40.758Z,100802.18
2018-07-03T23:57:02.151Z,100807.40
2018-07-03T23:59:23.397Z,100808.70
